sensor_id;sensor_type;location;lat;lon;timestamp;P1;durP1;ratioP1;P2;durP2;ratioP2
3133;SDS011;1577;49.912;10.924;2022-12-08T00:00:39;46.13;;;12.00;;
3133;SDS011;1577;49.912;10.924;2022-12-08T00:03:05;44.90;;;11.90;;
3133;SDS011;1577;49.912;10.924;2022-12-08T00:05:33;47.50;;;13.27;;
3133;SDS011;1577;49.912;10.924;2022-12-08T00:08:18;43.38;;;11.45;;
3133;SDS011;1577;49.912;10.924;2022-12-08T00:11:03;45.90;;;12.00;;
3133;SDS011;1577;49.912;10.924;2022-12-08T00:13:32;47.37;;;12.40;;
3133;SDS011;1577;49.912;10.924;2022-12-08T00:16:00;48.37;;;13.67;;
3133;SDS011;1577;49.912;10.924;2022-12-08T00:18:26;46.45;;;12.40;;
3133;SDS011;1577;49.912;10.924;2022-12-08T00:20:58;46.80;;;12.43;;
3133;SDS011;1577;49.912;10.924;2022-12-08T00:23:25;48.13;;;12.20;;
3133;SDS011;1577;49.912;10.924;2022-12-08T00:25:51;48.87;;;14.13;;
3133;SDS011;1577;49.912;10.924;2022-12-08T00:28:22;45.97;;;11.43;;
3133;SDS011;1577;49.912;10.924;2022-12-08T00:30:49;44.88;;;11.77;;
3133;SDS011;1577;49.912;10.924;2022-12-08T00:33:15;49.40;;;13.20;;
3133;SDS011;1577;49.912;10.924;2022-12-08T00:35:41;49.50;;;13.13;;
3133;SDS011;1577;49.912;10.924;2022-12-08T00:38:06;46.10;;;11.80;;
3133;SDS011;1577;49.912;10.924;2022-12-08T00:40:32;49.20;;;13.60;;
3133;SDS011;1577;49.912;10.924;2022-12-08T00:42:58;45.37;;;11.90;;
3133;SDS011;1577;49.912;10.924;2022-12-08T00:45:24;45.10;;;11.40;;
3133;SDS011;1577;49.912;10.924;2022-12-08T00:47:50;46.37;;;12.10;;
3133;SDS011;1577;49.912;10.924;2022-12-08T00:50:16;46.37;;;12.00;;
3133;SDS011;1577;49.912;10.924;2022-12-08T00:52:43;48.83;;;12.47;;
3133;SDS011;1577;49.912;10.924;2022-12-08T00:55:09;46.43;;;11.70;;
3133;SDS011;1577;49.912;10.924;2022-12-08T00:57:35;48.70;;;12.23;;
3133;SDS011;1577;49.912;10.924;2022-12-08T01:00:01;44.60;;;11.40;;
3133;SDS011;1577;49.912;10.924;2022-12-08T01:02:27;46.43;;;12.90;;
3133;SDS011;1577;49.912;10.924;2022-12-08T01:04:53;46.37;;;11.13;;
3133;SDS011;1577;49.912;10.924;2022-12-08T01:07:19;50.23;;;12.40;;
3133;SDS011;1577;49.912;10.924;2022-12-08T01:09:45;47.17;;;12.03;;
3133;SDS011;1577;49.912;10.924;2022-12-08T01:12:11;46.23;;;11.57;;
3133;SDS011;1577;49.912;10.924;2022-12-08T01:14:40;47.70;;;12.10;;
3133;SDS011;1577;49.912;10.924;2022-12-08T01:17:06;49.00;;;13.10;;
3133;SDS011;1577;49.912;10.924;2022-12-08T01:19:33;45.47;;;12.00;;
3133;SDS011;1577;49.912;10.924;2022-12-08T01:21:59;50.47;;;12.60;;
3133;SDS011;1577;49.912;10.924;2022-12-08T01:24:28;46.87;;;12.77;;
3133;SDS011;1577;49.912;10.924;2022-12-08T01:26:53;44.20;;;11.10;;
3133;SDS011;1577;49.912;10.924;2022-12-08T01:29:20;45.07;;;11.83;;
3133;SDS011;1577;49.912;10.924;2022-12-08T01:31:46;50.23;;;12.67;;
3133;SDS011;1577;49.912;10.924;2022-12-08T01:34:12;48.60;;;13.63;;
3133;SDS011;1577;49.912;10.924;2022-12-08T01:36:38;48.40;;;12.73;;
3133;SDS011;1577;49.912;10.924;2022-12-08T01:39:05;49.13;;;12.53;;
3133;SDS011;1577;49.912;10.924;2022-12-08T01:41:32;50.03;;;12.27;;
3133;SDS011;1577;49.912;10.924;2022-12-08T01:46:37;45.67;;;11.93;;
3133;SDS011;1577;49.912;10.924;2022-12-08T01:51:37;49.47;;;11.73;;
3133;SDS011;1577;49.912;10.924;2022-12-08T01:54:06;48.37;;;13.03;;
3133;SDS011;1577;49.912;10.924;2022-12-08T01:56:55;49.03;;;13.33;;
3133;SDS011;1577;49.912;10.924;2022-12-08T01:59:18;49.00;;;12.20;;
3133;SDS011;1577;49.912;10.924;2022-12-08T02:01:45;52.37;;;13.30;;
3133;SDS011;1577;49.912;10.924;2022-12-08T02:04:10;48.93;;;12.27;;
3133;SDS011;1577;49.912;10.924;2022-12-08T02:06:38;49.33;;;11.93;;
3133;SDS011;1577;49.912;10.924;2022-12-08T02:09:05;48.30;;;12.90;;
3133;SDS011;1577;49.912;10.924;2022-12-08T02:11:33;50.67;;;12.40;;
3133;SDS011;1577;49.912;10.924;2022-12-08T02:13:59;49.67;;;12.68;;
3133;SDS011;1577;49.912;10.924;2022-12-08T02:19:34;48.47;;;12.93;;
3133;SDS011;1577;49.912;10.924;2022-12-08T02:24:50;47.20;;;12.35;;
3133;SDS011;1577;49.912;10.924;2022-12-08T02:32:36;47.60;;;12.00;;
3133;SDS011;1577;49.912;10.924;2022-12-08T02:35:13;46.93;;;12.80;;
3133;SDS011;1577;49.912;10.924;2022-12-08T02:37:48;47.80;;;12.33;;
3133;SDS011;1577;49.912;10.924;2022-12-08T02:40:17;52.70;;;15.80;;
3133;SDS011;1577;49.912;10.924;2022-12-08T02:42:47;51.53;;;12.93;;
3133;SDS011;1577;49.912;10.924;2022-12-08T02:48:11;58.15;;;13.55;;
3133;SDS011;1577;49.912;10.924;2022-12-08T02:50:37;48.27;;;12.23;;
3133;SDS011;1577;49.912;10.924;2022-12-08T02:53:03;48.40;;;12.03;;
3133;SDS011;1577;49.912;10.924;2022-12-08T03:00:54;54.63;;;13.38;;
3133;SDS011;1577;49.912;10.924;2022-12-08T03:13:44;51.20;;;12.37;;
3133;SDS011;1577;49.912;10.924;2022-12-08T03:16:25;46.47;;;12.40;;
3133;SDS011;1577;49.912;10.924;2022-12-08T03:18:53;50.17;;;13.07;;
3133;SDS011;1577;49.912;10.924;2022-12-08T03:21:21;45.37;;;11.30;;
3133;SDS011;1577;49.912;10.924;2022-12-08T03:23:48;51.53;;;13.23;;
3133;SDS011;1577;49.912;10.924;2022-12-08T03:26:17;48.70;;;13.00;;
3133;SDS011;1577;49.912;10.924;2022-12-08T03:28:44;54.88;;;13.13;;
3133;SDS011;1577;49.912;10.924;2022-12-08T03:31:11;48.33;;;12.50;;
3133;SDS011;1577;49.912;10.924;2022-12-08T03:33:39;53.03;;;12.77;;
3133;SDS011;1577;49.912;10.924;2022-12-08T03:36:06;51.95;;;13.50;;
3133;SDS011;1577;49.912;10.924;2022-12-08T03:38:40;53.58;;;14.77;;
3133;SDS011;1577;49.912;10.924;2022-12-08T03:41:06;50.93;;;14.50;;
3133;SDS011;1577;49.912;10.924;2022-12-08T03:43:47;51.60;;;14.50;;
3133;SDS011;1577;49.912;10.924;2022-12-08T03:46:17;48.77;;;13.27;;
3133;SDS011;1577;49.912;10.924;2022-12-08T03:48:43;52.80;;;14.23;;
3133;SDS011;1577;49.912;10.924;2022-12-08T03:51:09;53.65;;;14.38;;
3133;SDS011;1577;49.912;10.924;2022-12-08T03:53:36;51.70;;;13.27;;
3133;SDS011;1577;49.912;10.924;2022-12-08T03:56:03;53.23;;;14.13;;
3133;SDS011;1577;49.912;10.924;2022-12-08T03:58:29;47.80;;;12.68;;
3133;SDS011;1577;49.912;10.924;2022-12-08T04:00:55;52.20;;;15.27;;
3133;SDS011;1577;49.912;10.924;2022-12-08T04:03:21;54.47;;;14.07;;
3133;SDS011;1577;49.912;10.924;2022-12-08T04:05:47;52.63;;;14.60;;
3133;SDS011;1577;49.912;10.924;2022-12-08T04:08:17;48.63;;;12.30;;
3133;SDS011;1577;49.912;10.924;2022-12-08T04:10:43;50.10;;;14.20;;
3133;SDS011;1577;49.912;10.924;2022-12-08T04:13:09;52.50;;;14.70;;
3133;SDS011;1577;49.912;10.924;2022-12-08T04:15:35;49.70;;;13.47;;
3133;SDS011;1577;49.912;10.924;2022-12-08T04:18:01;52.03;;;14.23;;
3133;SDS011;1577;49.912;10.924;2022-12-08T04:20:26;51.63;;;14.53;;
3133;SDS011;1577;49.912;10.924;2022-12-08T04:22:52;54.03;;;14.50;;
3133;SDS011;1577;49.912;10.924;2022-12-08T04:25:18;55.53;;;14.20;;
3133;SDS011;1577;49.912;10.924;2022-12-08T04:27:44;52.13;;;13.40;;
3133;SDS011;1577;49.912;10.924;2022-12-08T04:30:10;53.07;;;13.63;;
3133;SDS011;1577;49.912;10.924;2022-12-08T04:32:36;54.87;;;15.07;;
3133;SDS011;1577;49.912;10.924;2022-12-08T04:35:02;50.13;;;12.73;;
3133;SDS011;1577;49.912;10.924;2022-12-08T04:37:28;55.67;;;14.45;;
3133;SDS011;1577;49.912;10.924;2022-12-08T04:39:54;50.10;;;12.40;;
3133;SDS011;1577;49.912;10.924;2022-12-08T04:42:20;57.03;;;13.90;;
3133;SDS011;1577;49.912;10.924;2022-12-08T04:44:46;53.70;;;13.73;;
3133;SDS011;1577;49.912;10.924;2022-12-08T04:47:12;53.47;;;14.97;;
3133;SDS011;1577;49.912;10.924;2022-12-08T04:49:38;49.97;;;13.80;;
3133;SDS011;1577;49.912;10.924;2022-12-08T04:52:04;50.78;;;12.93;;
3133;SDS011;1577;49.912;10.924;2022-12-08T04:54:30;51.30;;;14.97;;
3133;SDS011;1577;49.912;10.924;2022-12-08T04:56:56;51.83;;;13.67;;
3133;SDS011;1577;49.912;10.924;2022-12-08T04:59:22;51.90;;;13.80;;
3133;SDS011;1577;49.912;10.924;2022-12-08T05:01:48;52.00;;;14.20;;
3133;SDS011;1577;49.912;10.924;2022-12-08T05:04:14;52.70;;;13.33;;
3133;SDS011;1577;49.912;10.924;2022-12-08T05:06:40;54.20;;;13.57;;
3133;SDS011;1577;49.912;10.924;2022-12-08T05:09:06;50.55;;;12.82;;
3133;SDS011;1577;49.912;10.924;2022-12-08T05:11:32;53.07;;;13.40;;
3133;SDS011;1577;49.912;10.924;2022-12-08T05:13:58;51.07;;;12.57;;
3133;SDS011;1577;49.912;10.924;2022-12-08T05:16:24;51.17;;;11.83;;
3133;SDS011;1577;49.912;10.924;2022-12-08T05:18:53;52.30;;;12.50;;
3133;SDS011;1577;49.912;10.924;2022-12-08T05:21:19;46.17;;;11.70;;
3133;SDS011;1577;49.912;10.924;2022-12-08T05:23:45;52.20;;;12.27;;
3133;SDS011;1577;49.912;10.924;2022-12-08T05:26:11;50.97;;;13.33;;
3133;SDS011;1577;49.912;10.924;2022-12-08T05:28:37;49.80;;;13.80;;
3133;SDS011;1577;49.912;10.924;2022-12-08T05:31:03;50.23;;;13.90;;
3133;SDS011;1577;49.912;10.924;2022-12-08T05:33:29;53.60;;;14.37;;
3133;SDS011;1577;49.912;10.924;2022-12-08T05:35:55;50.17;;;12.93;;
3133;SDS011;1577;49.912;10.924;2022-12-08T05:38:21;51.03;;;14.20;;
3133;SDS011;1577;49.912;10.924;2022-12-08T05:40:47;50.37;;;13.87;;
3133;SDS011;1577;49.912;10.924;2022-12-08T05:43:13;52.20;;;13.17;;
3133;SDS011;1577;49.912;10.924;2022-12-08T05:45:39;52.43;;;12.60;;
3133;SDS011;1577;49.912;10.924;2022-12-08T05:48:05;52.65;;;12.40;;
3133;SDS011;1577;49.912;10.924;2022-12-08T05:50:31;51.47;;;13.82;;
3133;SDS011;1577;49.912;10.924;2022-12-08T05:52:57;51.20;;;12.90;;
3133;SDS011;1577;49.912;10.924;2022-12-08T05:55:26;48.63;;;12.25;;
3133;SDS011;1577;49.912;10.924;2022-12-08T05:57:52;50.10;;;13.85;;
3133;SDS011;1577;49.912;10.924;2022-12-08T06:00:18;55.70;;;12.40;;
3133;SDS011;1577;49.912;10.924;2022-12-08T06:02:45;52.70;;;13.52;;
3133;SDS011;1577;49.912;10.924;2022-12-08T06:05:11;49.17;;;11.57;;
3133;SDS011;1577;49.912;10.924;2022-12-08T06:07:37;49.53;;;11.90;;
3133;SDS011;1577;49.912;10.924;2022-12-08T06:10:03;50.57;;;12.90;;
3133;SDS011;1577;49.912;10.924;2022-12-08T06:12:29;48.23;;;11.77;;
3133;SDS011;1577;49.912;10.924;2022-12-08T06:14:55;50.73;;;12.70;;
3133;SDS011;1577;49.912;10.924;2022-12-08T06:17:21;52.20;;;12.93;;
3133;SDS011;1577;49.912;10.924;2022-12-08T06:19:47;49.00;;;11.40;;
3133;SDS011;1577;49.912;10.924;2022-12-08T06:22:13;51.17;;;12.17;;
3133;SDS011;1577;49.912;10.924;2022-12-08T06:24:39;52.60;;;14.43;;
3133;SDS011;1577;49.912;10.924;2022-12-08T06:27:05;48.47;;;12.00;;
3133;SDS011;1577;49.912;10.924;2022-12-08T06:29:31;53.70;;;12.70;;
3133;SDS011;1577;49.912;10.924;2022-12-08T06:31:57;49.80;;;12.70;;
3133;SDS011;1577;49.912;10.924;2022-12-08T06:34:25;50.20;;;13.50;;
3133;SDS011;1577;49.912;10.924;2022-12-08T06:36:55;53.63;;;14.37;;
3133;SDS011;1577;49.912;10.924;2022-12-08T06:39:21;55.40;;;13.97;;
3133;SDS011;1577;49.912;10.924;2022-12-08T06:41:47;51.13;;;12.90;;
3133;SDS011;1577;49.912;10.924;2022-12-08T06:44:32;51.30;;;12.43;;
3133;SDS011;1577;49.912;10.924;2022-12-08T06:46:58;51.70;;;12.00;;
3133;SDS011;1577;49.912;10.924;2022-12-08T06:49:24;50.00;;;12.33;;
3133;SDS011;1577;49.912;10.924;2022-12-08T06:51:50;52.50;;;13.13;;
3133;SDS011;1577;49.912;10.924;2022-12-08T06:54:16;50.63;;;12.63;;
3133;SDS011;1577;49.912;10.924;2022-12-08T06:56:42;48.10;;;12.43;;
3133;SDS011;1577;49.912;10.924;2022-12-08T06:59:08;53.53;;;13.70;;
3133;SDS011;1577;49.912;10.924;2022-12-08T07:01:34;53.73;;;14.50;;
3133;SDS011;1577;49.912;10.924;2022-12-08T07:04:00;51.37;;;12.87;;
3133;SDS011;1577;49.912;10.924;2022-12-08T07:06:26;51.53;;;13.20;;
3133;SDS011;1577;49.912;10.924;2022-12-08T07:08:52;50.70;;;12.47;;
3133;SDS011;1577;49.912;10.924;2022-12-08T07:11:18;52.37;;;14.20;;
3133;SDS011;1577;49.912;10.924;2022-12-08T07:13:44;50.97;;;12.73;;
3133;SDS011;1577;49.912;10.924;2022-12-08T07:16:10;49.05;;;12.60;;
3133;SDS011;1577;49.912;10.924;2022-12-08T07:18:37;51.30;;;13.60;;
3133;SDS011;1577;49.912;10.924;2022-12-08T07:21:04;63.37;;;15.63;;
3133;SDS011;1577;49.912;10.924;2022-12-08T07:23:31;49.85;;;12.80;;
3133;SDS011;1577;49.912;10.924;2022-12-08T07:26:03;57.93;;;13.27;;
3133;SDS011;1577;49.912;10.924;2022-12-08T07:28:33;55.23;;;14.60;;
3133;SDS011;1577;49.912;10.924;2022-12-08T07:30:59;51.38;;;12.00;;
3133;SDS011;1577;49.912;10.924;2022-12-08T07:33:26;51.27;;;12.87;;
3133;SDS011;1577;49.912;10.924;2022-12-08T07:35:58;48.28;;;11.00;;
3133;SDS011;1577;49.912;10.924;2022-12-08T07:38:25;49.40;;;12.50;;
3133;SDS011;1577;49.912;10.924;2022-12-08T07:40:51;47.63;;;10.27;;
3133;SDS011;1577;49.912;10.924;2022-12-08T07:43:17;52.10;;;13.70;;
3133;SDS011;1577;49.912;10.924;2022-12-08T07:45:43;49.27;;;12.77;;
3133;SDS011;1577;49.912;10.924;2022-12-08T07:48:09;53.43;;;14.60;;
3133;SDS011;1577;49.912;10.924;2022-12-08T07:50:36;53.57;;;13.80;;
3133;SDS011;1577;49.912;10.924;2022-12-08T07:53:02;49.00;;;11.80;;
3133;SDS011;1577;49.912;10.924;2022-12-08T07:55:28;50.70;;;13.27;;
3133;SDS011;1577;49.912;10.924;2022-12-08T07:57:54;47.53;;;12.47;;
3133;SDS011;1577;49.912;10.924;2022-12-08T08:00:20;60.93;;;15.27;;
3133;SDS011;1577;49.912;10.924;2022-12-08T08:02:46;49.00;;;13.70;;
3133;SDS011;1577;49.912;10.924;2022-12-08T08:05:12;49.03;;;12.70;;
3133;SDS011;1577;49.912;10.924;2022-12-08T08:07:41;48.65;;;13.63;;
3133;SDS011;1577;49.912;10.924;2022-12-08T08:10:07;48.03;;;11.77;;
3133;SDS011;1577;49.912;10.924;2022-12-08T08:12:34;49.93;;;12.40;;
3133;SDS011;1577;49.912;10.924;2022-12-08T08:15:00;50.37;;;12.93;;
3133;SDS011;1577;49.912;10.924;2022-12-08T08:17:27;52.33;;;13.47;;
3133;SDS011;1577;49.912;10.924;2022-12-08T08:19:53;52.63;;;13.03;;
3133;SDS011;1577;49.912;10.924;2022-12-08T08:22:19;48.33;;;13.03;;
3133;SDS011;1577;49.912;10.924;2022-12-08T08:24:45;55.43;;;13.30;;
3133;SDS011;1577;49.912;10.924;2022-12-08T08:27:11;50.37;;;13.70;;
3133;SDS011;1577;49.912;10.924;2022-12-08T08:29:37;49.33;;;12.53;;
3133;SDS011;1577;49.912;10.924;2022-12-08T08:32:04;48.70;;;13.30;;
3133;SDS011;1577;49.912;10.924;2022-12-08T08:34:30;47.20;;;12.70;;
3133;SDS011;1577;49.912;10.924;2022-12-08T08:36:56;49.80;;;13.10;;
3133;SDS011;1577;49.912;10.924;2022-12-08T08:39:22;49.00;;;13.63;;
3133;SDS011;1577;49.912;10.924;2022-12-08T08:41:48;51.33;;;12.77;;
3133;SDS011;1577;49.912;10.924;2022-12-08T08:44:14;52.27;;;13.30;;
3133;SDS011;1577;49.912;10.924;2022-12-08T08:46:40;49.17;;;12.87;;
3133;SDS011;1577;49.912;10.924;2022-12-08T08:49:06;50.80;;;13.33;;
3133;SDS011;1577;49.912;10.924;2022-12-08T08:51:32;51.17;;;14.77;;
3133;SDS011;1577;49.912;10.924;2022-12-08T08:53:58;54.13;;;13.70;;
3133;SDS011;1577;49.912;10.924;2022-12-08T08:56:24;49.90;;;13.10;;
3133;SDS011;1577;49.912;10.924;2022-12-08T08:58:51;48.07;;;12.43;;
3133;SDS011;1577;49.912;10.924;2022-12-08T09:01:22;48.83;;;12.50;;
3133;SDS011;1577;49.912;10.924;2022-12-08T09:03:49;49.20;;;11.73;;
3133;SDS011;1577;49.912;10.924;2022-12-08T09:06:15;49.27;;;12.93;;
3133;SDS011;1577;49.912;10.924;2022-12-08T09:08:41;47.60;;;12.60;;
3133;SDS011;1577;49.912;10.924;2022-12-08T09:11:07;48.10;;;11.43;;
3133;SDS011;1577;49.912;10.924;2022-12-08T09:13:34;48.10;;;12.80;;
3133;SDS011;1577;49.912;10.924;2022-12-08T09:16:01;49.30;;;13.10;;
3133;SDS011;1577;49.912;10.924;2022-12-08T09:18:27;48.33;;;11.20;;
3133;SDS011;1577;49.912;10.924;2022-12-08T09:20:54;48.60;;;11.37;;
3133;SDS011;1577;49.912;10.924;2022-12-08T09:23:20;48.97;;;10.40;;
3133;SDS011;1577;49.912;10.924;2022-12-08T09:25:46;49.10;;;11.43;;
3133;SDS011;1577;49.912;10.924;2022-12-08T09:28:12;49.67;;;12.60;;
3133;SDS011;1577;49.912;10.924;2022-12-08T09:30:39;44.40;;;10.83;;
3133;SDS011;1577;49.912;10.924;2022-12-08T09:33:07;47.90;;;11.80;;
3133;SDS011;1577;49.912;10.924;2022-12-08T09:35:33;49.87;;;12.67;;
3133;SDS011;1577;49.912;10.924;2022-12-08T09:37:59;49.57;;;13.17;;
3133;SDS011;1577;49.912;10.924;2022-12-08T09:40:25;45.17;;;11.77;;
3133;SDS011;1577;49.912;10.924;2022-12-08T09:42:54;46.30;;;12.03;;
3133;SDS011;1577;49.912;10.924;2022-12-08T09:45:23;47.60;;;11.33;;
3133;SDS011;1577;49.912;10.924;2022-12-08T09:50:18;46.73;;;10.97;;
3133;SDS011;1577;49.912;10.924;2022-12-08T09:53:09;43.40;;;10.73;;
3133;SDS011;1577;49.912;10.924;2022-12-08T09:55:48;47.70;;;10.67;;
3133;SDS011;1577;49.912;10.924;2022-12-08T09:58:22;43.73;;;10.13;;
3133;SDS011;1577;49.912;10.924;2022-12-08T10:00:50;49.40;;;11.20;;
3133;SDS011;1577;49.912;10.924;2022-12-08T10:03:16;47.10;;;12.13;;
3133;SDS011;1577;49.912;10.924;2022-12-08T10:05:47;49.97;;;12.83;;
3133;SDS011;1577;49.912;10.924;2022-12-08T10:08:19;46.15;;;10.63;;
3133;SDS011;1577;49.912;10.924;2022-12-08T10:10:46;49.07;;;12.30;;
3133;SDS011;1577;49.912;10.924;2022-12-08T10:13:19;48.97;;;11.40;;
3133;SDS011;1577;49.912;10.924;2022-12-08T10:15:50;44.40;;;10.20;;
3133;SDS011;1577;49.912;10.924;2022-12-08T10:18:18;49.50;;;12.47;;
3133;SDS011;1577;49.912;10.924;2022-12-08T10:20:45;43.00;;;10.97;;
3133;SDS011;1577;49.912;10.924;2022-12-08T10:23:20;46.60;;;10.47;;
3133;SDS011;1577;49.912;10.924;2022-12-08T10:26:04;46.33;;;11.30;;
3133;SDS011;1577;49.912;10.924;2022-12-08T10:28:32;43.80;;;10.20;;
3133;SDS011;1577;49.912;10.924;2022-12-08T10:30:58;56.50;;;16.17;;
3133;SDS011;1577;49.912;10.924;2022-12-08T10:33:25;57.73;;;13.70;;
3133;SDS011;1577;49.912;10.924;2022-12-08T10:35:53;43.57;;;9.80;;
3133;SDS011;1577;49.912;10.924;2022-12-08T10:38:26;41.47;;;9.77;;
3133;SDS011;1577;49.912;10.924;2022-12-08T10:40:57;45.90;;;10.40;;
3133;SDS011;1577;49.912;10.924;2022-12-08T10:43:24;43.77;;;10.33;;
3133;SDS011;1577;49.912;10.924;2022-12-08T10:45:51;41.67;;;8.97;;
3133;SDS011;1577;49.912;10.924;2022-12-08T10:48:18;42.33;;;9.53;;
3133;SDS011;1577;49.912;10.924;2022-12-08T10:50:47;44.60;;;10.80;;
3133;SDS011;1577;49.912;10.924;2022-12-08T10:55:50;36.70;;;9.27;;
3133;SDS011;1577;49.912;10.924;2022-12-08T10:58:27;38.13;;;9.93;;
3133;SDS011;1577;49.912;10.924;2022-12-08T11:04:02;35.60;;;7.50;;
3133;SDS011;1577;49.912;10.924;2022-12-08T11:06:35;37.53;;;8.37;;
3133;SDS011;1577;49.912;10.924;2022-12-08T11:09:03;36.60;;;9.50;;
3133;SDS011;1577;49.912;10.924;2022-12-08T11:11:45;37.40;;;8.27;;
3133;SDS011;1577;49.912;10.924;2022-12-08T11:14:15;35.37;;;8.97;;
3133;SDS011;1577;49.912;10.924;2022-12-08T11:16:43;35.43;;;9.00;;
3133;SDS011;1577;49.912;10.924;2022-12-08T11:19:13;41.30;;;9.37;;
3133;SDS011;1577;49.912;10.924;2022-12-08T11:21:39;36.47;;;9.20;;
3133;SDS011;1577;49.912;10.924;2022-12-08T11:24:26;34.73;;;8.57;;
3133;SDS011;1577;49.912;10.924;2022-12-08T11:26:59;34.13;;;8.50;;
3133;SDS011;1577;49.912;10.924;2022-12-08T11:29:27;36.87;;;9.03;;
3133;SDS011;1577;49.912;10.924;2022-12-08T11:31:56;36.53;;;9.07;;
3133;SDS011;1577;49.912;10.924;2022-12-08T11:34:37;36.50;;;10.03;;
3133;SDS011;1577;49.912;10.924;2022-12-08T11:37:05;36.77;;;9.00;;
3133;SDS011;1577;49.912;10.924;2022-12-08T11:39:33;35.00;;;9.70;;
3133;SDS011;1577;49.912;10.924;2022-12-08T11:42:01;34.73;;;8.17;;
3133;SDS011;1577;49.912;10.924;2022-12-08T11:44:32;34.67;;;8.90;;
3133;SDS011;1577;49.912;10.924;2022-12-08T11:47:00;37.37;;;9.00;;
3133;SDS011;1577;49.912;10.924;2022-12-08T11:49:37;35.87;;;10.03;;
3133;SDS011;1577;49.912;10.924;2022-12-08T11:54:39;36.50;;;10.13;;
3133;SDS011;1577;49.912;10.924;2022-12-08T11:57:09;36.60;;;9.20;;
3133;SDS011;1577;49.912;10.924;2022-12-08T11:59:41;36.17;;;8.97;;
3133;SDS011;1577;49.912;10.924;2022-12-08T12:02:27;38.17;;;9.60;;
3133;SDS011;1577;49.912;10.924;2022-12-08T12:20:20;34.03;;;8.37;;
3133;SDS011;1577;49.912;10.924;2022-12-08T12:22:49;38.53;;;9.27;;
3133;SDS011;1577;49.912;10.924;2022-12-08T12:25:17;36.57;;;8.80;;
3133;SDS011;1577;49.912;10.924;2022-12-08T12:27:43;37.83;;;9.20;;
3133;SDS011;1577;49.912;10.924;2022-12-08T12:30:30;37.63;;;9.87;;
3133;SDS011;1577;49.912;10.924;2022-12-08T12:32:59;34.10;;;9.00;;
3133;SDS011;1577;49.912;10.924;2022-12-08T12:35:33;35.17;;;9.03;;
3133;SDS011;1577;49.912;10.924;2022-12-08T12:38:02;40.80;;;10.10;;
3133;SDS011;1577;49.912;10.924;2022-12-08T12:40:33;33.77;;;8.87;;
3133;SDS011;1577;49.912;10.924;2022-12-08T12:45:28;37.10;;;9.20;;
3133;SDS011;1577;49.912;10.924;2022-12-08T12:53:03;33.97;;;9.13;;
3133;SDS011;1577;49.912;10.924;2022-12-08T12:58:22;38.23;;;10.60;;
3133;SDS011;1577;49.912;10.924;2022-12-08T13:00:48;35.30;;;9.83;;
3133;SDS011;1577;49.912;10.924;2022-12-08T13:03:14;38.20;;;9.40;;
3133;SDS011;1577;49.912;10.924;2022-12-08T13:05:46;35.37;;;8.67;;
3133;SDS011;1577;49.912;10.924;2022-12-08T13:11:16;42.67;;;10.10;;
3133;SDS011;1577;49.912;10.924;2022-12-08T13:13:36;39.00;;;9.30;;
3133;SDS011;1577;49.912;10.924;2022-12-08T13:18:35;35.70;;;8.93;;
3133;SDS011;1577;49.912;10.924;2022-12-08T13:26:13;37.70;;;8.80;;
3133;SDS011;1577;49.912;10.924;2022-12-08T13:31:36;38.30;;;8.70;;
3133;SDS011;1577;49.912;10.924;2022-12-08T13:34:17;36.27;;;8.30;;
3133;SDS011;1577;49.912;10.924;2022-12-08T13:39:27;36.10;;;10.27;;
3133;SDS011;1577;49.912;10.924;2022-12-08T13:41:59;38.20;;;8.43;;
3133;SDS011;1577;49.912;10.924;2022-12-08T13:44:45;35.00;;;9.10;;
3133;SDS011;1577;49.912;10.924;2022-12-08T13:47:18;36.03;;;9.27;;
3133;SDS011;1577;49.912;10.924;2022-12-08T13:49:49;34.53;;;8.30;;
3133;SDS011;1577;49.912;10.924;2022-12-08T13:52:17;36.10;;;9.60;;
3133;SDS011;1577;49.912;10.924;2022-12-08T13:54:44;37.40;;;8.83;;
3133;SDS011;1577;49.912;10.924;2022-12-08T13:57:17;32.80;;;8.10;;
3133;SDS011;1577;49.912;10.924;2022-12-08T13:59:47;37.27;;;9.83;;
3133;SDS011;1577;49.912;10.924;2022-12-08T14:04:57;37.90;;;8.90;;
3133;SDS011;1577;49.912;10.924;2022-12-08T14:07:24;35.40;;;10.03;;
3133;SDS011;1577;49.912;10.924;2022-12-08T14:09:50;37.47;;;10.87;;
3133;SDS011;1577;49.912;10.924;2022-12-08T14:12:18;37.77;;;9.80;;
3133;SDS011;1577;49.912;10.924;2022-12-08T14:14:45;38.50;;;10.90;;
3133;SDS011;1577;49.912;10.924;2022-12-08T14:17:13;37.70;;;9.67;;
3133;SDS011;1577;49.912;10.924;2022-12-08T14:19:42;36.40;;;8.90;;
3133;SDS011;1577;49.912;10.924;2022-12-08T14:22:14;42.30;;;10.70;;
3133;SDS011;1577;49.912;10.924;2022-12-08T14:24:44;38.87;;;10.17;;
3133;SDS011;1577;49.912;10.924;2022-12-08T14:27:12;35.40;;;9.63;;
3133;SDS011;1577;49.912;10.924;2022-12-08T14:29:43;37.80;;;9.50;;
3133;SDS011;1577;49.912;10.924;2022-12-08T14:37:20;36.63;;;10.17;;
3133;SDS011;1577;49.912;10.924;2022-12-08T14:39:47;37.27;;;9.90;;
3133;SDS011;1577;49.912;10.924;2022-12-08T14:42:19;45.63;;;14.13;;
3133;SDS011;1577;49.912;10.924;2022-12-08T14:44:46;37.50;;;9.10;;
3133;SDS011;1577;49.912;10.924;2022-12-08T14:47:17;37.00;;;9.87;;
3133;SDS011;1577;49.912;10.924;2022-12-08T14:49:43;37.10;;;9.90;;
3133;SDS011;1577;49.912;10.924;2022-12-08T14:52:11;34.57;;;9.07;;
3133;SDS011;1577;49.912;10.924;2022-12-08T14:54:38;40.47;;;11.20;;
3133;SDS011;1577;49.912;10.924;2022-12-08T14:57:04;41.80;;;12.07;;
3133;SDS011;1577;49.912;10.924;2022-12-08T14:59:32;35.17;;;9.60;;
3133;SDS011;1577;49.912;10.924;2022-12-08T15:04:37;38.70;;;11.00;;
3133;SDS011;1577;49.912;10.924;2022-12-08T15:07:05;36.80;;;9.60;;
3133;SDS011;1577;49.912;10.924;2022-12-08T15:09:36;36.37;;;10.33;;
3133;SDS011;1577;49.912;10.924;2022-12-08T15:14:32;35.87;;;9.30;;
3133;SDS011;1577;49.912;10.924;2022-12-08T15:16:59;38.03;;;10.17;;
3133;SDS011;1577;49.912;10.924;2022-12-08T15:19:32;38.53;;;9.43;;
3133;SDS011;1577;49.912;10.924;2022-12-08T15:22:08;38.10;;;8.70;;
3133;SDS011;1577;49.912;10.924;2022-12-08T15:24:36;35.30;;;8.47;;
3133;SDS011;1577;49.912;10.924;2022-12-08T15:27:02;34.90;;;8.53;;
3133;SDS011;1577;49.912;10.924;2022-12-08T15:29:29;35.00;;;9.30;;
3133;SDS011;1577;49.912;10.924;2022-12-08T15:31:56;34.30;;;9.67;;
3133;SDS011;1577;49.912;10.924;2022-12-08T15:34:22;31.90;;;8.23;;
3133;SDS011;1577;49.912;10.924;2022-12-08T15:36:50;33.03;;;7.73;;
3133;SDS011;1577;49.912;10.924;2022-12-08T15:41:48;36.20;;;11.00;;
3133;SDS011;1577;49.912;10.924;2022-12-08T15:44:14;34.67;;;10.07;;
3133;SDS011;1577;49.912;10.924;2022-12-08T15:46:40;35.67;;;9.77;;
3133;SDS011;1577;49.912;10.924;2022-12-08T15:49:08;38.00;;;10.80;;
3133;SDS011;1577;49.912;10.924;2022-12-08T15:51:35;36.97;;;10.57;;
3133;SDS011;1577;49.912;10.924;2022-12-08T15:54:01;36.77;;;10.50;;
3133;SDS011;1577;49.912;10.924;2022-12-08T15:56:27;38.70;;;9.87;;
3133;SDS011;1577;49.912;10.924;2022-12-08T15:58:53;35.70;;;9.47;;
3133;SDS011;1577;49.912;10.924;2022-12-08T16:01:19;38.10;;;9.13;;
3133;SDS011;1577;49.912;10.924;2022-12-08T16:03:45;40.57;;;10.70;;
3133;SDS011;1577;49.912;10.924;2022-12-08T16:06:16;37.87;;;10.00;;
3133;SDS011;1577;49.912;10.924;2022-12-08T16:08:43;37.83;;;9.67;;
3133;SDS011;1577;49.912;10.924;2022-12-08T16:11:09;37.53;;;10.80;;
3133;SDS011;1577;49.912;10.924;2022-12-08T16:13:54;35.70;;;9.30;;
3133;SDS011;1577;49.912;10.924;2022-12-08T16:16:23;37.93;;;9.93;;
3133;SDS011;1577;49.912;10.924;2022-12-08T16:18:50;37.20;;;10.40;;
3133;SDS011;1577;49.912;10.924;2022-12-08T16:21:16;44.63;;;14.70;;
3133;SDS011;1577;49.912;10.924;2022-12-08T16:23:43;50.13;;;15.67;;
3133;SDS011;1577;49.912;10.924;2022-12-08T16:28:38;37.93;;;10.40;;